Time;durP1;ratioP1;P1;durP2;ratioP2;P2;SDS_P1;SDS_P2;PMS_P1;PMS_P2;Temp;Humidity;BMP_temperature;BMP_pressure;BME280_temperature;BME280_humidity;BME280_pressure;Samples;Min_cycle;Max_cycle;Signal;HPM_P1;HPM_P2
2022/05/09 00:01:22;;;;;;;9.55;4.22;;;;;;;;;;5073441;28;20480;-43
2022/05/09 00:03:48;;;;;;;8.77;3.20;;;;;;;;;;5073515;28;20068;-43
2022/05/09 00:06:14;;;;;;;7.43;4.45;;;;;;;;;;5073672;28;20075;-43
2022/05/09 00:08:42;;;;;;;12.23;4.18;;;;;;;;;;5073329;28;20104;-43
2022/05/09 00:11:11;;;;;;;7.80;3.80;;;;;;;;;;5073287;28;20051;-42
2022/05/09 00:13:37;;;;;;;7.93;4.07;;;;;;;;;;5072883;28;20051;-46
2022/05/09 00:16:06;;;;;;;10.60;4.28;;;;;;;;;;5073565;28;20021;-48
2022/05/09 00:18:33;;;;;;;15.18;7.63;;;;;;;;;;5073469;28;20153;-48
2022/05/09 00:20:59;;;;;;;13.13;6.28;;;;;;;;;;5073337;28;20078;-47
2022/05/09 00:23:27;;;;;;;11.10;4.68;;;;;;;;;;5073575;28;20082;-44
2022/05/09 00:25:53;;;;;;;11.90;3.33;;;;;;;;;;5073350;28;20024;-47
2022/05/09 00:28:20;;;;;;;8.05;3.67;;;;;;;;;;5073222;28;20094;-46
2022/05/09 00:30:46;;;;;;;13.93;6.10;;;;;;;;;;5073160;28;20100;-46
2022/05/09 00:33:13;;;;;;;22.55;9.73;;;;;;;;;;5073159;28;20031;-46
2022/05/09 00:35:44;;;;;;;19.90;10.25;;;;;;;;;;5073280;28;20073;-42
2022/05/09 00:38:10;;;;;;;17.65;8.40;;;;;;;;;;5073189;28;20086;-45
2022/05/09 00:40:37;;;;;;;14.93;8.32;;;;;;;;;;5072858;28;20044;-43
2022/05/09 00:43:04;;;;;;;22.10;8.98;;;;;;;;;;5073207;28;20041;-45
2022/05/09 00:45:30;;;;;;;15.15;7.85;;;;;;;;;;5073057;28;20047;-43
2022/05/09 00:47:56;;;;;;;17.35;7.88;;;;;;;;;;5073133;28;20029;-43
2022/05/09 00:50:27;;;;;;;18.42;8.25;;;;;;;;;;5073246;28;20031;-44
2022/05/09 00:52:59;;;;;;;16.88;9.38;;;;;;;;;;5073194;28;20025;-43
2022/05/09 00:55:25;;;;;;;;;;;;;;;;;;5055419;28;20036;-43
2022/05/09 00:57:52;;;;;;;21.88;11.57;;;;;;;;;;5072890;28;19905;-45
2022/05/09 01:00:19;;;;;;;18.42;10.00;;;;;;;;;;5073058;28;20033;-41
2022/05/09 01:02:48;;;;;;;17.75;10.57;;;;;;;;;;5072832;28;20025;-41
2022/05/09 01:05:15;;;;;;;14.70;8.10;;;;;;;;;;5072957;28;20476;-41
2022/05/09 01:07:42;;;;;;;14.85;6.50;;;;;;;;;;5073165;28;20103;-42
2022/05/09 01:10:11;;;;;;;12.45;6.00;;;;;;;;;;5072568;28;20048;-42
2022/05/09 01:12:38;;;;;;;12.70;6.60;;;;;;;;;;5072759;28;20120;-41
2022/05/09 01:15:07;;;;;;;10.10;6.13;;;;;;;;;;5072917;28;20017;-41
2022/05/09 01:17:34;;;;;;;14.63;7.18;;;;;;;;;;5073013;28;20107;-41
2022/05/09 01:20:01;;;;;;;14.10;7.57;;;;;;;;;;5072942;28;20066;-41
2022/05/09 01:22:30;;;;;;;11.63;5.80;;;;;;;;;;5054956;28;20098;-42
2022/05/09 01:25:02;;;;;;;14.95;6.93;;;;;;;;;;5073146;28;20054;-42
2022/05/09 01:27:30;;;;;;;10.70;6.18;;;;;;;;;;5076443;28;20024;-44
2022/05/09 01:29:56;;;;;;;9.20;5.40;;;;;;;;;;5076635;28;20044;-42
2022/05/09 01:32:27;;;;;;;10.27;5.07;;;;;;;;;;5076366;28;20451;-41
2022/05/09 01:34:55;;;;;;;15.63;6.53;;;;;;;;;;5076498;28;20482;-42
2022/05/09 01:37:22;;;;;;;12.65;5.95;;;;;;;;;;5076377;28;20387;-46
2022/05/09 01:39:48;;;;;;;11.65;6.10;;;;;;;;;;5076060;28;20031;-42
2022/05/09 01:42:14;;;;;;;11.00;4.93;;;;;;;;;;5076143;28;20048;-42
2022/05/09 01:44:41;;;;;;;11.15;5.93;;;;;;;;;;5076393;28;20105;-42
2022/05/09 01:49:52;;;;;;;16.70;6.88;;;;;;;;;;5076551;28;20104;-42
2022/05/09 01:52:19;;;;;;;12.18;6.28;;;;;;;;;;5076038;28;20024;-41
2022/05/09 01:54:47;;;;;;;8.63;6.00;;;;;;;;;;5075834;28;20060;-41
2022/05/09 01:57:14;;;;;;;10.80;6.65;;;;;;;;;;5075798;28;20021;-41
2022/05/09 01:59:40;;;;;;;13.90;6.95;;;;;;;;;;5075938;28;20032;-41
2022/05/09 02:02:15;;;;;;;14.00;7.15;;;;;;;;;;5076000;28;20036;-41
2022/05/09 02:04:41;;;;;;;10.00;6.45;;;;;;;;;;5075810;28;20039;-41
2022/05/09 02:07:11;;;;;;;12.65;6.25;;;;;;;;;;5075819;28;20055;-42
2022/05/09 02:09:41;;;;;;;11.00;6.72;;;;;;;;;;5075556;28;20040;-41
2022/05/09 02:12:08;;;;;;;7.85;5.63;;;;;;;;;;5057835;28;20040;-42
2022/05/09 02:14:34;;;;;;;8.52;5.10;;;;;;;;;;5075771;28;20071;-42
2022/05/09 02:17:01;;;;;;;9.38;6.50;;;;;;;;;;5075690;28;20381;-41
2022/05/09 02:19:27;;;;;;;16.23;12.25;;;;;;;;;;5075568;28;20065;-41
2022/05/09 02:21:53;;;;;;;15.88;11.02;;;;;;;;;;5075287;28;20032;-41
2022/05/09 02:24:19;;;;;;;10.27;6.68;;;;;;;;;;5075424;28;20024;-41
2022/05/09 02:26:46;;;;;;;13.48;7.03;;;;;;;;;;5075276;28;20035;-41
2022/05/09 02:29:12;;;;;;;10.93;5.43;;;;;;;;;;5075396;28;20499;-41
2022/05/09 02:31:40;;;;;;;7.45;5.57;;;;;;;;;;5075545;28;20036;-41
2022/05/09 02:34:06;;;;;;;10.10;5.68;;;;;;;;;;5075295;28;20025;-43
2022/05/09 02:36:32;;;;;;;8.95;5.68;;;;;;;;;;5074803;28;20025;-41
2022/05/09 02:38:59;;;;;;;10.60;5.82;;;;;;;;;;5074852;28;20029;-42
2022/05/09 02:41:26;;;;;;;9.15;6.30;;;;;;;;;;5075172;28;20033;-41
2022/05/09 02:43:52;;;;;;;10.75;5.93;;;;;;;;;;5075269;28;20074;-47
2022/05/09 02:46:20;;;;;;;12.05;5.80;;;;;;;;;;5075054;28;20029;-42
2022/05/09 02:48:49;;;;;;;13.10;6.93;;;;;;;;;;5075184;28;20480;-42
2022/05/09 02:51:15;;;;;;;11.23;6.05;;;;;;;;;;5075094;28;20024;-41
2022/05/09 02:53:41;;;;;;;12.45;6.35;;;;;;;;;;5074882;28;20146;-46
2022/05/09 02:56:07;;;;;;;13.52;6.38;;;;;;;;;;5074670;28;20016;-42
2022/05/09 02:58:34;;;;;;;8.77;6.10;;;;;;;;;;5074898;28;20100;-43
2022/05/09 03:01:00;;;;;;;13.45;7.60;;;;;;;;;;5074763;28;20040;-42
2022/05/09 03:06:12;;;;;;;10.02;6.65;;;;;;;;;;5074854;28;20031;-41
2022/05/09 03:08:38;;;;;;;13.77;6.60;;;;;;;;;;5074520;28;20021;-44
2022/05/09 03:11:04;;;;;;;11.13;7.28;;;;;;;;;;5074337;28;20557;-41
2022/05/09 03:13:30;;;;;;;14.57;7.53;;;;;;;;;;5074592;28;20028;-43
2022/05/09 03:15:58;;;;;;;9.50;6.68;;;;;;;;;;5074386;28;20487;-41
2022/05/09 03:18:25;;;;;;;12.00;7.82;;;;;;;;;;5074284;28;20168;-43
2022/05/09 03:20:54;;;;;;;22.58;8.23;;;;;;;;;;5074124;28;20469;-44
2022/05/09 03:23:20;;;;;;;14.45;8.05;;;;;;;;;;5074483;28;20028;-48
2022/05/09 03:25:46;;;;;;;14.57;8.82;;;;;;;;;;5074315;28;20021;-42
2022/05/09 03:28:13;;;;;;;18.17;8.68;;;;;;;;;;5074261;28;20017;-42
2022/05/09 03:30:42;;;;;;;17.45;8.55;;;;;;;;;;5074162;28;20042;-43
2022/05/09 03:33:08;;;;;;;17.45;8.77;;;;;;;;;;5074063;28;20507;-43
2022/05/09 03:35:35;;;;;;;29.77;9.40;;;;;;;;;;5074246;28;20461;-43
2022/05/09 03:38:01;;;;;;;22.63;10.20;;;;;;;;;;5074096;28;20023;-44
2022/05/09 03:40:32;;;;;;;23.25;9.80;;;;;;;;;;5073866;28;20028;-43
2022/05/09 03:42:59;;;;;;;18.08;8.13;;;;;;;;;;5073918;28;20039;-43
2022/05/09 03:45:25;;;;;;;20.30;8.90;;;;;;;;;;5073944;28;20102;-43
2022/05/09 03:47:51;;;;;;;21.42;9.23;;;;;;;;;;5073767;28;20025;-43
2022/05/09 03:50:18;;;;;;;20.08;9.68;;;;;;;;;;5073244;28;20020;-43
2022/05/09 03:52:45;;;;;;;24.75;10.23;;;;;;;;;;5073667;28;20024;-43
2022/05/09 03:55:12;;;;;;;22.17;10.65;;;;;;;;;;5073712;28;20021;-43
2022/05/09 03:58:05;;;;;;;23.90;11.07;;;;;;;;;;5073685;28;20028;-43
2022/05/09 04:00:32;;;;;;;25.92;11.55;;;;;;;;;;5066986;28;20036;-43
2022/05/09 04:03:00;;;;;;;29.02;11.95;;;;;;;;;;5053021;28;20041;-43
2022/05/09 04:05:30;;;;;;;29.25;12.68;;;;;;;;;;5053007;28;20066;-42
2022/05/09 04:07:57;;;;;;;30.90;13.30;;;;;;;;;;5051066;28;20393;-43
2022/05/09 04:10:24;;;;;;;31.17;11.88;;;;;;;;;;5052712;28;20041;-43
2022/05/09 04:12:50;;;;;;;28.70;12.60;;;;;;;;;;5053016;28;20029;-43
2022/05/09 04:18:02;;;;;;;26.25;11.30;;;;;;;;;;5051817;28;20036;-44
2022/05/09 04:20:31;;;;;;;21.13;9.77;;;;;;;;;;5053421;28;20020;-45
2022/05/09 04:22:58;;;;;;;18.60;10.02;;;;;;;;;;5053265;28;20032;-44
2022/05/09 04:25:26;;;;;;;23.48;10.15;;;;;;;;;;5053385;28;20033;-43
2022/05/09 04:27:53;;;;;;;28.33;9.45;;;;;;;;;;5053272;28;20025;-45
2022/05/09 04:30:19;;;;;;;19.38;9.15;;;;;;;;;;5053254;28;20092;-43
2022/05/09 04:32:45;;;;;;;17.02;8.50;;;;;;;;;;5053438;28;20468;-46
2022/05/09 04:35:21;;;;;;;12.88;6.75;;;;;;;;;;5053418;28;20055;-43
2022/05/09 04:37:49;;;;;;;21.50;7.35;;;;;;;;;;5053227;28;20029;-43
2022/05/09 04:40:22;;;;;;;13.38;5.65;;;;;;;;;;5053089;28;20094;-43
2022/05/09 04:42:48;;;;;;;11.40;6.30;;;;;;;;;;5052915;28;20044;-43
2022/05/09 04:45:15;;;;;;;14.93;7.07;;;;;;;;;;5053211;28;20557;-43
2022/05/09 04:47:42;;;;;;;21.25;8.00;;;;;;;;;;5053265;28;20112;-43
2022/05/09 04:50:09;;;;;;;19.00;7.72;;;;;;;;;;5053031;28;20497;-43
2022/05/09 04:52:38;;;;;;;12.10;6.45;;;;;;;;;;5053059;28;20033;-42
2022/05/09 04:55:04;;;;;;;17.27;9.73;;;;;;;;;;5053046;28;20051;-43
2022/05/09 04:57:33;;;;;;;10.55;6.13;;;;;;;;;;5052597;28;20048;-41
2022/05/09 05:00:01;;;;;;;14.48;6.78;;;;;;;;;;5053490;28;20485;-41
2022/05/09 05:02:27;;;;;;;9.70;6.43;;;;;;;;;;5039416;28;20128;-43
2022/05/09 05:04:53;;;;;;;11.70;6.30;;;;;;;;;;5057062;28;20031;-43
2022/05/09 05:07:19;;;;;;;22.73;6.30;;;;;;;;;;5056791;28;20029;-43
2022/05/09 05:09:48;;;;;;;13.13;5.82;;;;;;;;;;5056530;28;20087;-43
2022/05/09 05:12:14;;;;;;;11.85;7.43;;;;;;;;;;5056547;28;20067;-42
2022/05/09 05:14:40;;;;;;;9.23;5.78;;;;;;;;;;5056774;28;20029;-43
2022/05/09 05:17:08;;;;;;;23.90;6.50;;;;;;;;;;5056737;28;20116;-43
2022/05/09 05:19:36;;;;;;;12.25;5.35;;;;;;;;;;5057120;28;20021;-43
2022/05/09 05:22:03;;;;;;;12.50;4.75;;;;;;;;;;5056705;28;20029;-43
2022/05/09 05:24:32;;;;;;;8.55;4.63;;;;;;;;;;5056672;28;20024;-42
2022/05/09 05:26:58;;;;;;;8.18;5.22;;;;;;;;;;5056414;28;20031;-43
2022/05/09 05:29:24;;;;;;;10.60;5.70;;;;;;;;;;5056774;28;20502;-43
2022/05/09 05:31:50;;;;;;;10.00;6.18;;;;;;;;;;5056506;28;20046;-42
2022/05/09 05:34:17;;;;;;;7.22;5.43;;;;;;;;;;5056490;28;20024;-44
2022/05/09 05:36:43;;;;;;;9.73;5.18;;;;;;;;;;5056604;28;20044;-43
2022/05/09 05:39:15;;;;;;;11.80;5.18;;;;;;;;;;5056274;28;20029;-43
2022/05/09 05:41:41;;;;;;;7.80;4.78;;;;;;;;;;5056082;28;20074;-42
2022/05/09 05:44:11;;;;;;;11.90;8.48;;;;;;;;;;5056239;28;20092;-42
2022/05/09 05:46:37;;;;;;;7.43;4.43;;;;;;;;;;5056151;28;20029;-42
2022/05/09 05:49:03;;;;;;;14.43;7.60;;;;;;;;;;5056239;28;20017;-42
2022/05/09 05:51:29;;;;;;;13.57;4.55;;;;;;;;;;5056085;28;20032;-43
2022/05/09 05:53:58;;;;;;;8.32;4.30;;;;;;;;;;5056247;28;20021;-42
2022/05/09 05:56:24;;;;;;;4.47;2.95;;;;;;;;;;5055738;28;20436;-42
2022/05/09 05:58:50;;;;;;;6.32;3.60;;;;;;;;;;5056130;28;20079;-43
2022/05/09 06:01:17;;;;;;;8.10;2.40;;;;;;;;;;5055913;28;20445;-43
2022/05/09 06:03:43;;;;;;;7.90;2.97;;;;;;;;;;5056053;28;20049;-43
2022/05/09 06:06:09;;;;;;;4.57;2.95;;;;;;;;;;5055989;28;20100;-42
2022/05/09 06:08:38;;;;;;;21.15;13.13;;;;;;;;;;5055703;28;20021;-42
2022/05/09 06:11:05;;;;;;;7.90;2.75;;;;;;;;;;5055323;28;20051;-43
2022/05/09 06:13:32;;;;;;;5.43;2.28;;;;;;;;;;5055186;28;20068;-43
2022/05/09 06:15:58;;;;;;;4.00;2.03;;;;;;;;;;5055599;28;20029;-45
2022/05/09 06:18:24;;;;;;;6.32;2.15;;;;;;;;;;5055577;28;20028;-44
2022/05/09 06:20:51;;;;;;;6.25;2.70;;;;;;;;;;5055476;28;20013;-43
2022/05/09 06:23:17;;;;;;;6.75;2.45;;;;;;;;;;5055485;28;20041;-43
2022/05/09 06:25:46;;;;;;;4.72;2.88;;;;;;;;;;5055327;28;20028;-43
2022/05/09 06:28:14;;;;;;;7.50;3.20;;;;;;;;;;5055467;28;20037;-42
2022/05/09 06:30:40;;;;;;;10.35;3.70;;;;;;;;;;5055284;28;20025;-43
2022/05/09 06:33:07;;;;;;;7.53;4.05;;;;;;;;;;5055308;28;20075;-45
2022/05/09 06:35:33;;;;;;;8.35;4.03;;;;;;;;;;5055299;28;20071;-43
2022/05/09 06:38:03;;;;;;;6.70;2.97;;;;;;;;;;5055209;28;20033;-43
2022/05/09 06:40:30;;;;;;;6.70;3.38;;;;;;;;;;5054956;28;20025;-44
2022/05/09 06:42:59;;;;;;;6.15;3.70;;;;;;;;;;5055102;28;20052;-43
2022/05/09 06:45:26;;;;;;;7.00;3.97;;;;;;;;;;5055146;28;20027;-43
2022/05/09 06:47:53;;;;;;;6.55;3.28;;;;;;;;;;5055174;28;20500;-43
2022/05/09 06:50:20;;;;;;;6.78;3.10;;;;;;;;;;5054974;28;20025;-43
2022/05/09 06:52:46;;;;;;;7.18;3.65;;;;;;;;;;5054926;28;20017;-43
2022/05/09 06:55:13;;;;;;;5.28;2.70;;;;;;;;;;5055018;28;20028;-42
2022/05/09 06:57:42;;;;;;;7.68;4.57;;;;;;;;;;5054964;28;20091;-43
2022/05/09 07:00:10;;;;;;;54.75;30.55;;;;;;;;;;5055149;28;20021;-44
2022/05/09 07:02:36;;;;;;;40.60;19.35;;;;;;;;;;5054898;28;20033;-48
2022/05/09 07:05:07;;;;;;;22.02;10.10;;;;;;;;;;5037103;28;20075;-46
2022/05/09 07:07:33;;;;;;;58.95;31.55;;;;;;;;;;5054881;28;20025;-44
2022/05/09 07:10:01;;;;;;;28.40;15.50;;;;;;;;;;5054283;28;20048;-45
2022/05/09 07:12:27;;;;;;;38.42;21.05;;;;;;;;;;5054525;28;20025;-43
2022/05/09 07:14:53;;;;;;;19.95;9.90;;;;;;;;;;5054613;28;20064;-43
2022/05/09 07:17:19;;;;;;;12.07;7.20;;;;;;;;;;5054875;28;20070;-44
2022/05/09 07:19:46;;;;;;;24.70;12.70;;;;;;;;;;5054400;28;20024;-48
2022/05/09 07:22:12;;;;;;;28.70;16.20;;;;;;;;;;5054304;28;20037;-45
2022/05/09 07:24:39;;;;;;;14.93;8.00;;;;;;;;;;5054232;28;20021;-44
2022/05/09 07:27:07;;;;;;;16.50;9.65;;;;;;;;;;5054152;28;20029;-42
2022/05/09 07:29:34;;;;;;;15.80;9.07;;;;;;;;;;5054543;28;20028;-44
2022/05/09 07:32:00;;;;;;;9.75;5.85;;;;;;;;;;5054294;28;20078;-43
2022/05/09 07:34:26;;;;;;;8.57;3.50;;;;;;;;;;5054162;28;20021;-45
2022/05/09 07:36:52;;;;;;;11.50;5.13;;;;;;;;;;5054218;28;20028;-44
2022/05/09 07:39:18;;;;;;;19.40;7.13;;;;;;;;;;5053969;28;20079;-43
2022/05/09 07:41:46;;;;;;;6.47;4.28;;;;;;;;;;5054146;28;20370;-43
2022/05/09 07:44:12;;;;;;;6.80;3.25;;;;;;;;;;5054022;28;20488;-44
2022/05/09 07:46:38;;;;;;;8.23;3.20;;;;;;;;;;5054072;28;20107;-45
2022/05/09 07:49:05;;;;;;;6.68;3.90;;;;;;;;;;5054104;28;20025;-43
2022/05/09 07:51:31;;;;;;;14.48;5.00;;;;;;;;;;5053979;28;20039;-43
2022/05/09 07:53:57;;;;;;;8.35;4.57;;;;;;;;;;5053782;28;20021;-43
2022/05/09 07:56:23;;;;;;;4.78;3.20;;;;;;;;;;5053768;28;20024;-44
2022/05/09 07:58:49;;;;;;;6.40;2.88;;;;;;;;;;5053810;28;20021;-42
2022/05/09 08:01:16;;;;;;;8.25;3.90;;;;;;;;;;5053565;28;20111;-41
2022/05/09 08:03:42;;;;;;;11.25;3.70;;;;;;;;;;5053796;28;20031;-44
2022/05/09 08:06:09;;;;;;;12.02;5.05;;;;;;;;;;5053579;28;20029;-43
2022/05/09 08:08:40;;;;;;;7.75;3.70;;;;;;;;;;5053542;28;20039;-44
2022/05/09 08:11:06;;;;;;;10.00;3.38;;;;;;;;;;5053410;28;20073;-44
2022/05/09 08:13:34;;;;;;;7.40;2.97;;;;;;;;;;5053384;28;20033;-45
2022/05/09 08:16:00;;;;;;;9.18;3.22;;;;;;;;;;5053729;28;20074;-44
2022/05/09 08:18:27;;;;;;;9.85;3.38;;;;;;;;;;5053481;28;20025;-43
2022/05/09 08:20:57;;;;;;;5.85;2.83;;;;;;;;;;5053428;28;20025;-43
2022/05/09 08:23:23;;;;;;;3.78;2.40;;;;;;;;;;5053431;28;20037;-43
2022/05/09 08:25:50;;;;;;;6.20;2.35;;;;;;;;;;5053528;28;20462;-41
2022/05/09 08:28:20;;;;;;;9.20;5.30;;;;;;;;;;5068610;28;20459;-41
2022/05/09 08:30:49;;;;;;;13.60;8.35;;;;;;;;;;5053282;28;20532;-42
2022/05/09 08:33:17;;;;;;;14.20;7.28;;;;;;;;;;5053266;28;20056;-41
2022/05/09 08:35:48;;;;;;;12.65;7.03;;;;;;;;;;5052723;28;20029;-47
2022/05/09 08:38:14;;;;;;;6.80;3.40;;;;;;;;;;5053086;28;20025;-42
2022/05/09 08:40:57;;;;;;;9.95;5.57;;;;;;;;;;5053223;28;20025;-42
2022/05/09 08:43:37;;;;;;;12.48;7.47;;;;;;;;;;5053230;28;20378;-44
2022/05/09 08:46:08;;;;;;;75.55;45.00;;;;;;;;;;5053350;28;20028;-43
2022/05/09 08:48:52;;;;;;;37.60;20.65;;;;;;;;;;5053066;28;20021;-45
2022/05/09 08:51:24;;;;;;;32.58;14.40;;;;;;;;;;5053212;28;20029;-44
2022/05/09 08:53:55;;;;;;;7.63;4.93;;;;;;;;;;5053012;28;20071;-48
2022/05/09 08:56:22;;;;;;;5.57;2.40;;;;;;;;;;5053006;28;20370;-43
2022/05/09 08:58:53;;;;;;;3.90;2.50;;;;;;;;;;5052850;28;20393;-43
2022/05/09 09:01:21;;;;;;;;;;;;;;;;;;5053305;28;20056;-43
2022/05/09 09:03:59;;;;;;;33.65;17.58;;;;;;;;;;5053154;28;20257;-42
2022/05/09 09:06:42;;;;;;;23.90;14.23;;;;;;;;;;5053272;28;20021;-42
2022/05/09 09:09:09;;;;;;;34.97;21.30;;;;;;;;;;5052669;28;20431;-43
2022/05/09 09:11:53;;;;;;;19.38;12.35;;;;;;;;;;5052868;28;20091;-43
2022/05/09 09:14:19;;;;;;;11.82;4.38;;;;;;;;;;5052793;28;20103;-43
2022/05/09 09:17:04;;;;;;;21.13;12.93;;;;;;;;;;5052918;28;20025;-43
2022/05/09 09:19:33;;;;;;;12.27;5.95;;;;;;;;;;5052764;28;20473;-43
2022/05/09 09:22:00;;;;;;;12.43;6.22;;;;;;;;;;5052747;28;20033;-43
2022/05/09 09:24:37;;;;;;;8.77;3.30;;;;;;;;;;5052706;28;20104;-43
2022/05/09 09:27:23;;;;;;;8.48;4.72;;;;;;;;;;5052604;28;20025;-43
2022/05/09 09:29:56;;;;;;;4.93;3.33;;;;;;;;;;5045801;28;20091;-43
2022/05/09 09:32:23;;;;;;;17.00;6.78;;;;;;;;;;5052780;28;20104;-43
2022/05/09 09:34:53;;;;;;;8.20;3.50;;;;;;;;;;5052574;28;20111;-43
2022/05/09 09:37:20;;;;;;;3.25;2.28;;;;;;;;;;5052640;28;20108;-43
2022/05/09 09:39:48;;;;;;;8.85;4.20;;;;;;;;;;5052494;28;20087;-43
2022/05/09 09:42:14;;;;;;;4.30;2.65;;;;;;;;;;5052592;28;20520;-44
2022/05/09 09:44:43;;;;;;;6.22;3.20;;;;;;;;;;5052591;28;20056;-44
2022/05/09 09:47:09;;;;;;;10.65;5.25;;;;;;;;;;5053416;28;20033;-44
2022/05/09 09:49:40;;;;;;;6.25;3.40;;;;;;;;;;5056056;28;20025;-45
2022/05/09 09:52:15;;;;;;;5.55;3.30;;;;;;;;;;5056385;28;20021;-44
2022/05/09 09:54:46;;;;;;;3.58;2.45;;;;;;;;;;5056157;28;20072;-44
2022/05/09 09:57:19;;;;;;;3.40;2.75;;;;;;;;;;5056178;28;20027;-44
2022/05/09 09:59:46;;;;;;;4.13;3.25;;;;;;;;;;5056244;28;20036;-44
2022/05/09 10:02:14;;;;;;;6.15;2.83;;;;;;;;;;5055832;28;20085;-43
2022/05/09 10:04:41;;;;;;;6.28;3.60;;;;;;;;;;5055835;28;20461;-43
2022/05/09 10:07:10;;;;;;;4.57;2.80;;;;;;;;;;5056109;28;20112;-44
2022/05/09 10:10:00;;;;;;;11.27;6.05;;;;;;;;;;5055800;28;20064;-43
2022/05/09 10:12:26;;;;;;;;;;;;;;;;;;5056154;28;20029;-44
2022/05/09 10:14:53;;;;;;;3.97;2.67;;;;;;;;;;5055772;28;20008;-43
2022/05/09 10:17:32;;;;;;;7.32;2.80;;;;;;;;;;5055722;28;20086;-44
2022/05/09 10:19:59;;;;;;;4.30;3.08;;;;;;;;;;5055820;28;20025;-44
2022/05/09 10:25:14;;;;;;;3.35;2.83;;;;;;;;;;5055420;28;20035;-44
2022/05/09 10:27:41;;;;;;;3.83;2.92;;;;;;;;;;5055466;28;20032;-45
2022/05/09 10:30:19;;;;;;;4.15;2.42;;;;;;;;;;5055356;28;20027;-44
2022/05/09 10:32:52;;;;;;;2.92;2.17;;;;;;;;;;5055392;28;20025;-43
2022/05/09 10:35:21;;;;;;;2.95;2.20;;;;;;;;;;5055411;28;20025;-44
2022/05/09 10:37:51;;;;;;;3.83;2.70;;;;;;;;;;5055300;28;20025;-44
2022/05/09 10:40:17;;;;;;;7.40;2.53;;;;;;;;;;5055267;28;20025;-46
2022/05/09 10:42:46;;;;;;;6.90;2.30;;;;;;;;;;5055017;28;20049;-45
2022/05/09 10:45:24;;;;;;;3.95;2.33;;;;;;;;;;5055100;28;20100;-47
2022/05/09 10:47:59;;;;;;;3.65;2.50;;;;;;;;;;5055289;28;20029;-44
2022/05/09 10:50:41;;;;;;;4.97;2.38;;;;;;;;;;5054949;28;20025;-44
2022/05/09 10:53:21;;;;;;;5.45;2.40;;;;;;;;;;5054940;28;20139;-45
2022/05/09 10:55:54;;;;;;;8.80;2.00;;;;;;;;;;5055075;28;20036;-45
2022/05/09 10:58:30;;;;;;;4.53;3.38;;;;;;;;;;5054340;28;20021;-43
2022/05/09 11:00:59;;;;;;;2.85;2.28;;;;;;;;;;5054862;28;20043;-44
2022/05/09 11:03:34;;;;;;;5.13;2.50;;;;;;;;;;5054624;28;20389;-41
2022/05/09 11:06:24;;;;;;;4.68;2.25;;;;;;;;;;5054737;28;20022;-50
2022/05/09 11:08:57;;;;;;;4.43;2.60;;;;;;;;;;5054517;28;20099;-40
2022/05/09 11:11:41;;;;;;;32.65;21.75;;;;;;;;;;5054378;28;20500;-41
2022/05/09 11:14:19;;;;;;;14.88;8.07;;;;;;;;;;5054577;28;20036;-44
2022/05/09 11:17:01;;;;;;;3.42;2.70;;;;;;;;;;5054763;28;20021;-44
2022/05/09 11:19:46;;;;;;;7.03;3.05;;;;;;;;;;5054483;28;20053;-49
2022/05/09 11:22:26;;;;;;;4.20;2.70;;;;;;;;;;5054232;28;20075;-45
2022/05/09 11:25:01;;;;;;;6.55;3.88;;;;;;;;;;5054330;28;20067;-45
2022/05/09 11:27:37;;;;;;;7.07;3.92;;;;;;;;;;5054561;28;20020;-44
2022/05/09 11:30:22;;;;;;;4.50;3.00;;;;;;;;;;5054462;28;20496;-44
2022/05/09 11:32:51;;;;;;;7.35;3.10;;;;;;;;;;5054423;28;20024;-44
2022/05/09 11:35:23;;;;;;;10.73;4.00;;;;;;;;;;5054258;28;20025;-45
2022/05/09 11:37:49;;;;;;;6.07;3.60;;;;;;;;;;5054307;28;20076;-45
2022/05/09 11:40:21;;;;;;;2.95;2.10;;;;;;;;;;5054018;28;20043;-45
2022/05/09 11:45:32;;;;;;;5.32;2.80;;;;;;;;;;5054001;28;20470;-45
2022/05/09 11:47:58;;;;;;;5.03;2.40;;;;;;;;;;5053973;28;20029;-45
2022/05/09 11:50:27;;;;;;;4.22;2.63;;;;;;;;;;5053999;28;20456;-48
2022/05/09 11:52:55;;;;;;;3.28;2.47;;;;;;;;;;5053288;28;20049;-47
2022/05/09 11:55:22;;;;;;;12.35;3.30;;;;;;;;;;5052937;28;20035;-44
2022/05/09 11:57:53;;;;;;;9.23;3.35;;;;;;;;;;5053063;28;20021;-44
2022/05/09 12:00:26;;;;;;;4.47;2.90;;;;;;;;;;5053728;28;20029;-46
2022/05/09 12:02:56;;;;;;;19.63;8.68;;;;;;;;;;5053417;28;20037;-47
2022/05/09 12:05:31;;;;;;;7.07;4.18;;;;;;;;;;5053477;28;20358;-44
2022/05/09 12:08:04;;;;;;;3.42;2.30;;;;;;;;;;5053722;28;20021;-47
2022/05/09 12:10:32;;;;;;;3.45;2.20;;;;;;;;;;5052674;28;20740;-43
2022/05/09 12:13:10;;;;;;;13.35;5.85;;;;;;;;;;5053429;28;20473;-43
2022/05/09 12:15:38;;;;;;;2.40;1.95;;;;;;;;;;5053771;28;20028;-43
2022/05/09 12:18:07;;;;;;;6.82;3.30;;;;;;;;;;5053648;28;20048;-43
2022/05/09 12:20:36;;;;;;;3.40;2.45;;;;;;;;;;5053405;28;20465;-43
2022/05/09 12:23:03;;;;;;;8.13;2.28;;;;;;;;;;5053098;28;20037;-45
2022/05/09 12:25:44;;;;;;;4.88;2.25;;;;;;;;;;5053406;28;20028;-45
2022/05/09 12:28:21;;;;;;;4.15;2.35;;;;;;;;;;5053320;28;20382;-44
2022/05/09 12:31:04;;;;;;;3.17;2.38;;;;;;;;;;5053383;28;20029;-43
2022/05/09 12:33:36;;;;;;;6.55;2.53;;;;;;;;;;5053115;28;20078;-45
2022/05/09 12:36:22;;;;;;;3.35;2.30;;;;;;;;;;5053212;28;20017;-47
2022/05/09 12:38:49;;;;;;;4.57;2.28;;;;;;;;;;5053237;28;20056;-48
2022/05/09 12:41:26;;;;;;;2.50;2.30;;;;;;;;;;5053344;28;20025;-47
2022/05/09 12:43:55;;;;;;;3.58;1.90;;;;;;;;;;5052928;28;20401;-45
2022/05/09 12:46:30;;;;;;;3.55;2.10;;;;;;;;;;5053383;28;20025;-47
2022/05/09 12:48:57;;;;;;;3.42;2.17;;;;;;;;;;5053326;28;20033;-47
2022/05/09 12:51:26;;;;;;;4.40;2.35;;;;;;;;;;5053142;28;20468;-43
2022/05/09 12:53:52;;;;;;;4.55;2.38;;;;;;;;;;5052989;28;20032;-47
2022/05/09 12:56:20;;;;;;;7.70;2.17;;;;;;;;;;5053198;28;20093;-44
2022/05/09 12:58:48;;;;;;;3.90;2.25;;;;;;;;;;5052891;28;20032;-43
2022/05/09 13:01:14;;;;;;;3.70;2.60;;;;;;;;;;5053346;28;20040;-44
2022/05/09 13:03:59;;;;;;;4.97;3.00;;;;;;;;;;5052998;28;20041;-43
2022/05/09 13:06:28;;;;;;;5.18;2.78;;;;;;;;;;5053059;28;20473;-43
2022/05/09 13:08:55;;;;;;;5.10;2.50;;;;;;;;;;5052851;28;20452;-44
2022/05/09 13:11:29;;;;;;;7.40;2.80;;;;;;;;;;5052700;28;20049;-44
2022/05/09 13:14:01;;;;;;;4.20;2.50;;;;;;;;;;5052830;28;20090;-47
2022/05/09 13:16:33;;;;;;;4.07;1.55;;;;;;;;;;5053204;28;20022;-44
2022/05/09 13:19:00;;;;;;;3.38;1.98;;;;;;;;;;5052766;28;20412;-44
2022/05/09 13:21:28;;;;;;;5.25;2.33;;;;;;;;;;5054384;28;20017;-48
2022/05/09 13:23:56;;;;;;;3.33;1.80;;;;;;;;;;5056466;28;20540;-48
2022/05/09 13:26:24;;;;;;;4.72;2.80;;;;;;;;;;5056582;28;20036;-45
2022/05/09 13:28:54;;;;;;;5.60;2.75;;;;;;;;;;5056801;28;20028;-44
2022/05/09 13:31:25;;;;;;;9.80;2.60;;;;;;;;;;5056688;28;20426;-44
2022/05/09 13:33:51;;;;;;;6.33;3.07;;;;;;;;;;5056973;28;20432;-45
2022/05/09 13:36:20;;;;;;;6.32;3.05;;;;;;;;;;5056363;28;20257;-44
2022/05/09 13:38:47;;;;;;;7.05;2.58;;;;;;;;;;5056691;28;20100;-44
2022/05/09 13:41:19;;;;;;;5.72;2.90;;;;;;;;;;5056442;28;20025;-44
2022/05/09 13:43:49;;;;;;;4.47;2.97;;;;;;;;;;5056166;28;20170;-44
2022/05/09 13:46:18;;;;;;;6.68;2.97;;;;;;;;;;5056201;28;20436;-44
2022/05/09 13:48:45;;;;;;;3.75;2.95;;;;;;;;;;5056333;28;20033;-44
2022/05/09 13:51:11;;;;;;;7.20;3.00;;;;;;;;;;5056108;28;20481;-46
2022/05/09 13:53:38;;;;;;;5.43;3.47;;;;;;;;;;5056046;28;20056;-48
2022/05/09 13:56:13;;;;;;;8.70;3.00;;;;;;;;;;5056223;28;20056;-44
2022/05/09 13:58:39;;;;;;;6.57;3.00;;;;;;;;;;5056266;28;20040;-44
2022/05/09 14:01:06;;;;;;;5.53;3.20;;;;;;;;;;5056130;28;20021;-45
2022/05/09 14:03:47;;;;;;;5.05;2.90;;;;;;;;;;5055778;28;20099;-44
2022/05/09 14:06:13;;;;;;;;;;;;;;;;;;5056634;28;20445;-44
2022/05/09 14:08:39;;;;;;;7.90;3.63;;;;;;;;;;5055839;28;19940;-44
2022/05/09 14:11:10;;;;;;;3.63;2.80;;;;;;;;;;5055750;28;20555;-44
2022/05/09 14:13:39;;;;;;;3.28;2.65;;;;;;;;;;5055642;28;20540;-44
2022/05/09 14:16:18;;;;;;;5.70;2.47;;;;;;;;;;5055675;28;20024;-47
2022/05/09 14:18:47;;;;;;;4.03;2.80;;;;;;;;;;5055735;28;20091;-46
2022/05/09 14:21:20;;;;;;;6.38;2.53;;;;;;;;;;5055870;28;20418;-46
2022/05/09 14:23:47;;;;;;;3.47;2.80;;;;;;;;;;5055808;28;20033;-44
2022/05/09 14:31:59;;;;;;;4.65;2.22;;;;;;;;;;5055897;28;20082;-44
2022/05/09 14:34:27;;;;;;;3.28;2.17;;;;;;;;;;5054801;28;20025;-48
2022/05/09 14:37:10;;;;;;;4.68;2.50;;;;;;;;;;5055624;28;20017;-49
2022/05/09 14:39:43;;;;;;;6.03;2.50;;;;;;;;;;5055580;28;20025;-48
2022/05/09 14:42:17;;;;;;;2.97;2.58;;;;;;;;;;5055320;28;20028;-47
2022/05/09 14:44:44;;;;;;;4.65;2.85;;;;;;;;;;5055388;28;20640;-45
2022/05/09 14:47:10;;;;;;;3.88;2.30;;;;;;;;;;5055187;28;20032;-44
2022/05/09 14:49:42;;;;;;;4.30;2.55;;;;;;;;;;5055105;28;20052;-47
2022/05/09 14:52:11;;;;;;;5.47;2.60;;;;;;;;;;5055009;28;20057;-44
2022/05/09 14:54:45;;;;;;;3.78;2.67;;;;;;;;;;5054933;28;20044;-44
2022/05/09 14:57:25;;;;;;;2.88;2.50;;;;;;;;;;5055389;28;20108;-47
2022/05/09 14:59:52;;;;;;;7.97;2.25;;;;;;;;;;5054835;28;20028;-46
2022/05/09 15:02:33;;;;;;;3.50;2.55;;;;;;;;;;5054784;28;20021;-47
2022/05/09 15:05:00;;;;;;;2.78;2.40;;;;;;;;;;5054934;28;20033;-45
2022/05/09 15:07:26;;;;;;;3.75;2.42;;;;;;;;;;5054925;28;20025;-44